sensor_id;sensor_type;location;lat;lon;timestamp;temperature;humidity
1155;DHT22;566;48.414;9.118;2023-04-03T00:00:40;1.80;84.20
1155;DHT22;566;48.414;9.118;2023-04-03T00:03:06;1.70;84.60
1155;DHT22;566;48.414;9.118;2023-04-03T00:05:32;1.70;84.40
1155;DHT22;566;48.414;9.118;2023-04-03T00:07:58;1.70;85.30
1155;DHT22;566;48.414;9.118;2023-04-03T00:10:23;1.60;84.80
1155;DHT22;566;48.414;9.118;2023-04-03T00:12:49;1.70;84.80
1155;DHT22;566;48.414;9.118;2023-04-03T00:15:15;1.70;84.10
1155;DHT22;566;48.414;9.118;2023-04-03T00:17:41;1.60;84.40
1155;DHT22;566;48.414;9.118;2023-04-03T00:20:07;1.70;85.00
1155;DHT22;566;48.414;9.118;2023-04-03T00:22:32;1.70;84.80
1155;DHT22;566;48.414;9.118;2023-04-03T00:24:58;1.70;87.20
1155;DHT22;566;48.414;9.118;2023-04-03T00:27:24;1.60;87.90
1155;DHT22;566;48.414;9.118;2023-04-03T00:29:49;1.70;86.50
1155;DHT22;566;48.414;9.118;2023-04-03T00:32:15;1.60;88.00
1155;DHT22;566;48.414;9.118;2023-04-03T00:34:40;1.70;86.60
1155;DHT22;566;48.414;9.118;2023-04-03T00:37:06;1.60;88.90
1155;DHT22;566;48.414;9.118;2023-04-03T00:39:31;1.50;88.70
1155;DHT22;566;48.414;9.118;2023-04-03T00:41:57;1.60;87.50
1155;DHT22;566;48.414;9.118;2023-04-03T00:47:12;1.60;89.50
1155;DHT22;566;48.414;9.118;2023-04-03T00:49:38;1.60;88.70
1155;DHT22;566;48.414;9.118;2023-04-03T00:52:14;1.60;89.00
1155;DHT22;566;48.414;9.118;2023-04-03T00:54:42;1.60;89.10
1155;DHT22;566;48.414;9.118;2023-04-03T00:57:08;1.60;88.00
1155;DHT22;566;48.414;9.118;2023-04-03T00:59:39;1.60;88.70
1155;DHT22;566;48.414;9.118;2023-04-03T01:02:07;1.60;88.20
1155;DHT22;566;48.414;9.118;2023-04-03T01:04:43;1.60;89.00
1155;DHT22;566;48.414;9.118;2023-04-03T01:07:21;1.60;88.60
1155;DHT22;566;48.414;9.118;2023-04-03T01:09:49;1.60;90.30
1155;DHT22;566;48.414;9.118;2023-04-03T01:12:29;1.60;90.80
1155;DHT22;566;48.414;9.118;2023-04-03T01:15:01;1.60;90.30
1155;DHT22;566;48.414;9.118;2023-04-03T01:20:11;1.70;88.60
1155;DHT22;566;48.414;9.118;2023-04-03T01:25:44;1.70;89.40
1155;DHT22;566;48.414;9.118;2023-04-03T01:28:20;1.70;89.70
1155;DHT22;566;48.414;9.118;2023-04-03T01:33:31;1.90;91.60
1155;DHT22;566;48.414;9.118;2023-04-03T01:35:56;1.90;92.00
1155;DHT22;566;48.414;9.118;2023-04-03T01:38:22;1.90;91.30
1155;DHT22;566;48.414;9.118;2023-04-03T01:40:48;1.90;91.50
1155;DHT22;566;48.414;9.118;2023-04-03T01:43:13;1.80;92.70
1155;DHT22;566;48.414;9.118;2023-04-03T01:45:39;1.80;93.10
1155;DHT22;566;48.414;9.118;2023-04-03T01:48:05;1.80;92.30
1155;DHT22;566;48.414;9.118;2023-04-03T01:50:31;1.80;93.10
1155;DHT22;566;48.414;9.118;2023-04-03T01:52:56;1.80;92.20
1155;DHT22;566;48.414;9.118;2023-04-03T01:55:22;1.80;92.20
1155;DHT22;566;48.414;9.118;2023-04-03T01:57:47;1.80;94.20
1155;DHT22;566;48.414;9.118;2023-04-03T02:00:13;1.80;93.60
1155;DHT22;566;48.414;9.118;2023-04-03T02:02:39;1.80;92.90
1155;DHT22;566;48.414;9.118;2023-04-03T02:05:05;1.80;92.40
1155;DHT22;566;48.414;9.118;2023-04-03T02:07:31;1.90;94.00
1155;DHT22;566;48.414;9.118;2023-04-03T02:09:57;1.80;93.90
1155;DHT22;566;48.414;9.118;2023-04-03T02:12:22;1.80;93.50
1155;DHT22;566;48.414;9.118;2023-04-03T02:14:48;1.80;93.50
1155;DHT22;566;48.414;9.118;2023-04-03T02:17:13;1.80;93.20
1155;DHT22;566;48.414;9.118;2023-04-03T02:19:39;1.80;93.10
1155;DHT22;566;48.414;9.118;2023-04-03T02:22:05;1.80;93.30
1155;DHT22;566;48.414;9.118;2023-04-03T02:24:31;1.70;93.10
1155;DHT22;566;48.414;9.118;2023-04-03T02:26:56;1.70;93.70
1155;DHT22;566;48.414;9.118;2023-04-03T02:29:22;1.70;93.30
1155;DHT22;566;48.414;9.118;2023-04-03T02:31:48;1.70;93.80
1155;DHT22;566;48.414;9.118;2023-04-03T02:34:14;1.60;93.90
1155;DHT22;566;48.414;9.118;2023-04-03T02:36:40;1.60;93.70
1155;DHT22;566;48.414;9.118;2023-04-03T02:39:05;1.60;93.70
1155;DHT22;566;48.414;9.118;2023-04-03T02:41:31;1.60;93.70
1155;DHT22;566;48.414;9.118;2023-04-03T02:44:04;1.60;93.40
1155;DHT22;566;48.414;9.118;2023-04-03T02:46:33;1.60;92.80
1155;DHT22;566;48.414;9.118;2023-04-03T02:48:58;1.60;92.20
1155;DHT22;566;48.414;9.118;2023-04-03T02:51:25;1.60;92.10
1155;DHT22;566;48.414;9.118;2023-04-03T02:53:50;1.50;92.60
1155;DHT22;566;48.414;9.118;2023-04-03T02:56:16;1.50;92.50
1155;DHT22;566;48.414;9.118;2023-04-03T02:58:43;1.50;93.00
1155;DHT22;566;48.414;9.118;2023-04-03T03:01:09;1.50;92.10
1155;DHT22;566;48.414;9.118;2023-04-03T03:03:35;1.50;92.70
1155;DHT22;566;48.414;9.118;2023-04-03T03:06:09;1.50;93.40
1155;DHT22;566;48.414;9.118;2023-04-03T03:08:35;1.50;93.60
1155;DHT22;566;48.414;9.118;2023-04-03T03:11:02;1.50;93.90
1155;DHT22;566;48.414;9.118;2023-04-03T03:13:28;1.50;93.80
1155;DHT22;566;48.414;9.118;2023-04-03T03:15:53;1.50;94.00
1155;DHT22;566;48.414;9.118;2023-04-03T03:18:19;1.40;94.20
1155;DHT22;566;48.414;9.118;2023-04-03T03:20:45;1.50;94.50
1155;DHT22;566;48.414;9.118;2023-04-03T03:23:10;1.40;94.30
1155;DHT22;566;48.414;9.118;2023-04-03T03:25:40;1.40;94.50
1155;DHT22;566;48.414;9.118;2023-04-03T03:28:06;1.40;93.90
1155;DHT22;566;48.414;9.118;2023-04-03T03:30:32;1.40;93.00
1155;DHT22;566;48.414;9.118;2023-04-03T03:32:58;1.40;93.70
1155;DHT22;566;48.414;9.118;2023-04-03T03:35:23;1.40;94.40
1155;DHT22;566;48.414;9.118;2023-04-03T03:37:49;1.40;94.70
1155;DHT22;566;48.414;9.118;2023-04-03T03:40:14;1.40;93.90
1155;DHT22;566;48.414;9.118;2023-04-03T03:42:40;1.30;94.40
1155;DHT22;566;48.414;9.118;2023-04-03T03:45:06;1.30;94.40
1155;DHT22;566;48.414;9.118;2023-04-03T03:47:32;1.30;94.40
1155;DHT22;566;48.414;9.118;2023-04-03T03:49:58;1.30;95.10
1155;DHT22;566;48.414;9.118;2023-04-03T03:52:23;1.30;94.10
1155;DHT22;566;48.414;9.118;2023-04-03T03:54:49;1.20;93.70
1155;DHT22;566;48.414;9.118;2023-04-03T03:57:14;1.20;93.70
1155;DHT22;566;48.414;9.118;2023-04-03T03:59:40;1.20;93.90
1155;DHT22;566;48.414;9.118;2023-04-03T04:02:07;1.20;93.70
1155;DHT22;566;48.414;9.118;2023-04-03T04:04:33;1.20;93.60
1155;DHT22;566;48.414;9.118;2023-04-03T04:06:59;1.10;93.90
1155;DHT22;566;48.414;9.118;2023-04-03T04:09:26;1.10;93.70
1155;DHT22;566;48.414;9.118;2023-04-03T04:11:52;1.10;93.80
1155;DHT22;566;48.414;9.118;2023-04-03T04:14:18;1.10;93.10
1155;DHT22;566;48.414;9.118;2023-04-03T04:16:46;1.20;94.20
1155;DHT22;566;48.414;9.118;2023-04-03T04:19:11;1.20;94.40
1155;DHT22;566;48.414;9.118;2023-04-03T04:21:38;1.20;94.60
1155;DHT22;566;48.414;9.118;2023-04-03T04:24:04;1.30;95.80
1155;DHT22;566;48.414;9.118;2023-04-03T04:26:30;1.30;96.40
1155;DHT22;566;48.414;9.118;2023-04-03T04:28:56;1.30;96.60
1155;DHT22;566;48.414;9.118;2023-04-03T04:31:21;1.30;96.10
1155;DHT22;566;48.414;9.118;2023-04-03T04:33:47;1.20;95.10
1155;DHT22;566;48.414;9.118;2023-04-03T04:36:12;1.20;96.00
1155;DHT22;566;48.414;9.118;2023-04-03T04:38:40;1.20;97.30
1155;DHT22;566;48.414;9.118;2023-04-03T04:41:05;1.30;97.60
1155;DHT22;566;48.414;9.118;2023-04-03T04:43:31;1.30;98.00
1155;DHT22;566;48.414;9.118;2023-04-03T04:46:01;1.40;98.00
1155;DHT22;566;48.414;9.118;2023-04-03T04:48:27;1.40;98.00
1155;DHT22;566;48.414;9.118;2023-04-03T04:50:52;1.40;98.00
1155;DHT22;566;48.414;9.118;2023-04-03T04:53:18;1.40;98.00
1155;DHT22;566;48.414;9.118;2023-04-03T04:55:44;1.40;98.00
1155;DHT22;566;48.414;9.118;2023-04-03T04:58:09;1.30;98.00
1155;DHT22;566;48.414;9.118;2023-04-03T05:00:35;1.30;98.00
1155;DHT22;566;48.414;9.118;2023-04-03T05:03:00;1.30;98.00
1155;DHT22;566;48.414;9.118;2023-04-03T05:05:26;1.30;98.00
1155;DHT22;566;48.414;9.118;2023-04-03T05:07:51;1.30;98.00
1155;DHT22;566;48.414;9.118;2023-04-03T05:10:17;1.30;98.00
1155;DHT22;566;48.414;9.118;2023-04-03T05:12:43;1.40;98.00
1155;DHT22;566;48.414;9.118;2023-04-03T05:15:08;1.40;98.00
1155;DHT22;566;48.414;9.118;2023-04-03T05:17:34;1.40;97.90
1155;DHT22;566;48.414;9.118;2023-04-03T05:20:01;1.50;97.80
1155;DHT22;566;48.414;9.118;2023-04-03T05:22:26;1.40;98.00
1155;DHT22;566;48.414;9.118;2023-04-03T05:24:52;1.40;98.00
1155;DHT22;566;48.414;9.118;2023-04-03T05:27:17;1.50;98.00
1155;DHT22;566;48.414;9.118;2023-04-03T05:29:43;1.50;98.00
1155;DHT22;566;48.414;9.118;2023-04-03T05:32:10;1.50;98.00
1155;DHT22;566;48.414;9.118;2023-04-03T05:34:36;1.50;98.00
1155;DHT22;566;48.414;9.118;2023-04-03T05:37:01;1.50;97.40
1155;DHT22;566;48.414;9.118;2023-04-03T05:39:28;1.50;97.00
1155;DHT22;566;48.414;9.118;2023-04-03T05:41:54;1.50;96.10
1155;DHT22;566;48.414;9.118;2023-04-03T05:44:19;1.50;96.20
1155;DHT22;566;48.414;9.118;2023-04-03T05:46:45;1.50;96.00
1155;DHT22;566;48.414;9.118;2023-04-03T05:49:10;1.60;96.10
1155;DHT22;566;48.414;9.118;2023-04-03T05:51:37;1.60;96.50
1155;DHT22;566;48.414;9.118;2023-04-03T05:54:12;1.70;96.50
1155;DHT22;566;48.414;9.118;2023-04-03T05:56:39;1.70;96.50
1155;DHT22;566;48.414;9.118;2023-04-03T05:59:04;1.70;96.10
1155;DHT22;566;48.414;9.118;2023-04-03T06:01:30;1.70;94.80
1155;DHT22;566;48.414;9.118;2023-04-03T06:03:56;1.70;93.40
1155;DHT22;566;48.414;9.118;2023-04-03T06:06:24;1.70;93.40
1155;DHT22;566;48.414;9.118;2023-04-03T06:08:49;1.80;93.50
1155;DHT22;566;48.414;9.118;2023-04-03T06:11:15;1.80;92.20
1155;DHT22;566;48.414;9.118;2023-04-03T06:13:41;1.80;92.40
1155;DHT22;566;48.414;9.118;2023-04-03T06:16:10;1.90;92.70
1155;DHT22;566;48.414;9.118;2023-04-03T06:18:37;2.00;91.90
1155;DHT22;566;48.414;9.118;2023-04-03T06:21:02;2.10;92.50
1155;DHT22;566;48.414;9.118;2023-04-03T06:23:28;2.20;92.00
1155;DHT22;566;48.414;9.118;2023-04-03T06:25:54;2.30;92.30
1155;DHT22;566;48.414;9.118;2023-04-03T06:28:20;2.40;91.40
1155;DHT22;566;48.414;9.118;2023-04-03T06:30:45;2.40;90.80
1155;DHT22;566;48.414;9.118;2023-04-03T06:33:11;2.40;90.90
1155;DHT22;566;48.414;9.118;2023-04-03T06:35:36;2.40;89.90
1155;DHT22;566;48.414;9.118;2023-04-03T06:38:03;2.50;90.80
1155;DHT22;566;48.414;9.118;2023-04-03T06:40:34;2.50;91.20
1155;DHT22;566;48.414;9.118;2023-04-03T06:43:00;2.70;90.70
1155;DHT22;566;48.414;9.118;2023-04-03T06:45:26;2.80;89.90
1155;DHT22;566;48.414;9.118;2023-04-03T06:47:53;2.90;88.10
1155;DHT22;566;48.414;9.118;2023-04-03T06:50:18;2.80;87.90
1155;DHT22;566;48.414;9.118;2023-04-03T06:52:44;2.90;87.40
1155;DHT22;566;48.414;9.118;2023-04-03T06:55:10;3.10;87.40
1155;DHT22;566;48.414;9.118;2023-04-03T06:57:37;3.30;86.40
1155;DHT22;566;48.414;9.118;2023-04-03T07:00:05;3.50;84.50
1155;DHT22;566;48.414;9.118;2023-04-03T07:02:31;3.50;83.50
1155;DHT22;566;48.414;9.118;2023-04-03T07:04:57;3.60;85.00
1155;DHT22;566;48.414;9.118;2023-04-03T07:07:22;3.70;84.80
1155;DHT22;566;48.414;9.118;2023-04-03T07:09:48;3.70;82.90
1155;DHT22;566;48.414;9.118;2023-04-03T07:12:14;3.60;83.40
1155;DHT22;566;48.414;9.118;2023-04-03T07:14:41;3.80;84.00
1155;DHT22;566;48.414;9.118;2023-04-03T07:17:06;4.00;83.80
1155;DHT22;566;48.414;9.118;2023-04-03T07:19:32;4.20;85.90
1155;DHT22;566;48.414;9.118;2023-04-03T07:21:58;4.30;88.10
1155;DHT22;566;48.414;9.118;2023-04-03T07:24:23;4.20;88.80
1155;DHT22;566;48.414;9.118;2023-04-03T07:26:50;4.20;90.60
1155;DHT22;566;48.414;9.118;2023-04-03T07:29:16;4.30;89.10
1155;DHT22;566;48.414;9.118;2023-04-03T07:31:42;4.50;89.30
1155;DHT22;566;48.414;9.118;2023-04-03T07:34:10;4.60;88.80
1155;DHT22;566;48.414;9.118;2023-04-03T07:36:36;4.70;88.90
1155;DHT22;566;48.414;9.118;2023-04-03T07:39:01;4.70;88.40
1155;DHT22;566;48.414;9.118;2023-04-03T07:41:27;4.50;87.80
1155;DHT22;566;48.414;9.118;2023-04-03T07:43:54;4.50;88.20
1155;DHT22;566;48.414;9.118;2023-04-03T07:46:20;4.70;88.60
1155;DHT22;566;48.414;9.118;2023-04-03T07:48:46;4.60;87.90
1155;DHT22;566;48.414;9.118;2023-04-03T07:51:12;4.60;88.70
1155;DHT22;566;48.414;9.118;2023-04-03T07:53:38;4.70;87.90
1155;DHT22;566;48.414;9.118;2023-04-03T07:56:03;5.00;87.20
1155;DHT22;566;48.414;9.118;2023-04-03T07:58:30;5.20;86.70
1155;DHT22;566;48.414;9.118;2023-04-03T08:00:55;4.90;86.30
1155;DHT22;566;48.414;9.118;2023-04-03T08:03:21;5.00;87.90
1155;DHT22;566;48.414;9.118;2023-04-03T08:05:48;5.20;86.20
1155;DHT22;566;48.414;9.118;2023-04-03T08:08:17;5.20;85.10
1155;DHT22;566;48.414;9.118;2023-04-03T08:10:43;5.10;85.20
1155;DHT22;566;48.414;9.118;2023-04-03T08:13:09;5.20;86.50
1155;DHT22;566;48.414;9.118;2023-04-03T08:15:35;5.20;86.30
1155;DHT22;566;48.414;9.118;2023-04-03T08:18:01;5.00;86.50
1155;DHT22;566;48.414;9.118;2023-04-03T08:20:27;5.00;86.90
1155;DHT22;566;48.414;9.118;2023-04-03T08:22:53;5.10;86.20
1155;DHT22;566;48.414;9.118;2023-04-03T08:25:19;5.10;85.40
1155;DHT22;566;48.414;9.118;2023-04-03T08:27:44;4.90;84.70
1155;DHT22;566;48.414;9.118;2023-04-03T08:30:11;4.80;86.80
1155;DHT22;566;48.414;9.118;2023-04-03T08:32:37;4.70;87.00
1155;DHT22;566;48.414;9.118;2023-04-03T08:35:03;4.70;86.70
1155;DHT22;566;48.414;9.118;2023-04-03T08:37:29;4.90;86.10
1155;DHT22;566;48.414;9.118;2023-04-03T08:39:55;5.00;86.40
1155;DHT22;566;48.414;9.118;2023-04-03T08:42:51;5.10;85.80
1155;DHT22;566;48.414;9.118;2023-04-03T08:45:45;5.40;85.90
1155;DHT22;566;48.414;9.118;2023-04-03T08:48:21;5.10;84.70
1155;DHT22;566;48.414;9.118;2023-04-03T08:50:53;5.10;86.50
1155;DHT22;566;48.414;9.118;2023-04-03T08:53:26;5.30;85.80
1155;DHT22;566;48.414;9.118;2023-04-03T08:55:55;5.40;85.90
1155;DHT22;566;48.414;9.118;2023-04-03T08:58:23;5.60;86.20
1155;DHT22;566;48.414;9.118;2023-04-03T09:00:54;5.60;84.20
1155;DHT22;566;48.414;9.118;2023-04-03T09:03:22;5.40;85.60
1155;DHT22;566;48.414;9.118;2023-04-03T09:08:30;5.10;87.10
1155;DHT22;566;48.414;9.118;2023-04-03T09:13:57;5.30;85.40
1155;DHT22;566;48.414;9.118;2023-04-03T09:19:21;5.50;84.50
1155;DHT22;566;48.414;9.118;2023-04-03T09:21:47;5.30;85.50
1155;DHT22;566;48.414;9.118;2023-04-03T09:24:15;5.10;85.50
1155;DHT22;566;48.414;9.118;2023-04-03T09:29:28;5.50;85.40
1155;DHT22;566;48.414;9.118;2023-04-03T09:32:00;5.90;85.90
1155;DHT22;566;48.414;9.118;2023-04-03T09:34:37;6.00;84.40
1155;DHT22;566;48.414;9.118;2023-04-03T09:37:04;6.30;84.00
1155;DHT22;566;48.414;9.118;2023-04-03T09:39:52;6.20;83.70
1155;DHT22;566;48.414;9.118;2023-04-03T09:42:23;6.00;84.40
1155;DHT22;566;48.414;9.118;2023-04-03T09:45:00;6.00;82.20
1155;DHT22;566;48.414;9.118;2023-04-03T09:47:28;6.10;84.90
1155;DHT22;566;48.414;9.118;2023-04-03T09:50:21;6.30;83.20
1155;DHT22;566;48.414;9.118;2023-04-03T09:52:49;6.30;83.20
1155;DHT22;566;48.414;9.118;2023-04-03T09:55:25;6.50;82.90
1155;DHT22;566;48.414;9.118;2023-04-03T09:58:05;6.60;81.70
1155;DHT22;566;48.414;9.118;2023-04-03T10:00:54;6.50;81.90
1155;DHT22;566;48.414;9.118;2023-04-03T10:03:33;6.10;83.00
1155;DHT22;566;48.414;9.118;2023-04-03T10:06:01;6.00;83.10
1155;DHT22;566;48.414;9.118;2023-04-03T10:08:32;6.20;82.70
1155;DHT22;566;48.414;9.118;2023-04-03T10:11:16;6.10;82.50
1155;DHT22;566;48.414;9.118;2023-04-03T10:13:55;6.10;81.20
1155;DHT22;566;48.414;9.118;2023-04-03T10:16:26;6.00;83.00
1155;DHT22;566;48.414;9.118;2023-04-03T10:21:57;6.40;82.20
1155;DHT22;566;48.414;9.118;2023-04-03T10:46:06;6.10;82.30
1155;DHT22;566;48.414;9.118;2023-04-03T10:48:40;6.20;82.70
1155;DHT22;566;48.414;9.118;2023-04-03T10:54:04;7.00;81.30
1155;DHT22;566;48.414;9.118;2023-04-03T10:56:38;6.80;80.20
1155;DHT22;566;48.414;9.118;2023-04-03T10:59:13;6.50;81.20
1155;DHT22;566;48.414;9.118;2023-04-03T11:01:45;6.40;80.30
1155;DHT22;566;48.414;9.118;2023-04-03T11:04:15;6.10;83.50
1155;DHT22;566;48.414;9.118;2023-04-03T11:06:47;6.00;83.60
1155;DHT22;566;48.414;9.118;2023-04-03T11:09:35;5.80;82.00
1155;DHT22;566;48.414;9.118;2023-04-03T11:12:25;5.70;82.80
1155;DHT22;566;48.414;9.118;2023-04-03T11:14:52;5.70;83.10
1155;DHT22;566;48.414;9.118;2023-04-03T11:17:22;5.80;83.30
1155;DHT22;566;48.414;9.118;2023-04-03T11:23:05;6.40;82.00
1155;DHT22;566;48.414;9.118;2023-04-03T11:25:36;6.90;80.00
1155;DHT22;566;48.414;9.118;2023-04-03T11:28:05;6.80;81.50
1155;DHT22;566;48.414;9.118;2023-04-03T11:33:24;6.90;77.90
1155;DHT22;566;48.414;9.118;2023-04-03T11:35:58;6.40;80.70
1155;DHT22;566;48.414;9.118;2023-04-03T11:38:28;6.20;79.70
1155;DHT22;566;48.414;9.118;2023-04-03T11:40:57;6.00;80.60
1155;DHT22;566;48.414;9.118;2023-04-03T11:43:29;5.90;80.10
1155;DHT22;566;48.414;9.118;2023-04-03T11:46:05;6.00;81.60
1155;DHT22;566;48.414;9.118;2023-04-03T11:53:39;6.40;79.80
1155;DHT22;566;48.414;9.118;2023-04-03T12:04:11;5.80;80.80
1155;DHT22;566;48.414;9.118;2023-04-03T12:11:48;5.60;81.80
1155;DHT22;566;48.414;9.118;2023-04-03T12:14:16;5.40;82.00
1155;DHT22;566;48.414;9.118;2023-04-03T12:16:45;5.60;83.20
1155;DHT22;566;48.414;9.118;2023-04-03T12:29:46;7.70;76.80
1155;DHT22;566;48.414;9.118;2023-04-03T12:46:04;6.60;77.40
1155;DHT22;566;48.414;9.118;2023-04-03T12:48:38;6.20;78.10
1155;DHT22;566;48.414;9.118;2023-04-03T12:51:05;6.10;80.90
1155;DHT22;566;48.414;9.118;2023-04-03T12:53:33;6.10;79.80
1155;DHT22;566;48.414;9.118;2023-04-03T12:56:25;6.10;80.10
1155;DHT22;566;48.414;9.118;2023-04-03T12:58:53;6.20;80.00
1155;DHT22;566;48.414;9.118;2023-04-03T13:01:24;6.20;80.10
1155;DHT22;566;48.414;9.118;2023-04-03T13:03:54;6.30;79.70
1155;DHT22;566;48.414;9.118;2023-04-03T13:06:30;6.10;79.10
1155;DHT22;566;48.414;9.118;2023-04-03T13:08:59;5.90;78.40
1155;DHT22;566;48.414;9.118;2023-04-03T13:11:37;5.90;79.10
1155;DHT22;566;48.414;9.118;2023-04-03T13:14:18;6.00;79.60
1155;DHT22;566;48.414;9.118;2023-04-03T13:16:56;6.00;78.30
1155;DHT22;566;48.414;9.118;2023-04-03T13:19:27;6.10;80.20
1155;DHT22;566;48.414;9.118;2023-04-03T13:22:06;5.90;78.90
1155;DHT22;566;48.414;9.118;2023-04-03T13:24:36;6.00;80.20
1155;DHT22;566;48.414;9.118;2023-04-03T13:27:04;6.00;78.90
1155;DHT22;566;48.414;9.118;2023-04-03T13:29:33;6.00;79.10
1155;DHT22;566;48.414;9.118;2023-04-03T13:32:01;5.70;79.50
1155;DHT22;566;48.414;9.118;2023-04-03T13:34:38;5.70;80.40
1155;DHT22;566;48.414;9.118;2023-04-03T13:37:06;5.50;80.50
1155;DHT22;566;48.414;9.118;2023-04-03T13:39:37;5.50;80.80
1155;DHT22;566;48.414;9.118;2023-04-03T13:42:22;5.50;80.70
1155;DHT22;566;48.414;9.118;2023-04-03T13:44:48;5.60;80.60
1155;DHT22;566;48.414;9.118;2023-04-03T13:47:21;5.70;79.70
1155;DHT22;566;48.414;9.118;2023-04-03T13:50:23;5.90;80.10
1155;DHT22;566;48.414;9.118;2023-04-03T13:53:02;6.30;79.50
1155;DHT22;566;48.414;9.118;2023-04-03T13:55:34;6.20;77.70
1155;DHT22;566;48.414;9.118;2023-04-03T14:00:32;6.20;77.20
1155;DHT22;566;48.414;9.118;2023-04-03T14:02:58;6.00;77.70
1155;DHT22;566;48.414;9.118;2023-04-03T14:05:24;5.70;79.20
1155;DHT22;566;48.414;9.118;2023-04-03T14:07:54;5.80;78.00
1155;DHT22;566;48.414;9.118;2023-04-03T14:10:21;5.80;79.40
1155;DHT22;566;48.414;9.118;2023-04-03T14:12:46;5.80;78.90
1155;DHT22;566;48.414;9.118;2023-04-03T14:15:22;5.70;79.20
1155;DHT22;566;48.414;9.118;2023-04-03T14:17:50;5.60;79.70
1155;DHT22;566;48.414;9.118;2023-04-03T14:20:20;5.60;79.50
1155;DHT22;566;48.414;9.118;2023-04-03T14:22:47;5.60;79.70
1155;DHT22;566;48.414;9.118;2023-04-03T14:25:14;5.60;80.60
1155;DHT22;566;48.414;9.118;2023-04-03T14:27:43;6.00;78.80
1155;DHT22;566;48.414;9.118;2023-04-03T14:32:39;6.80;76.80
1155;DHT22;566;48.414;9.118;2023-04-03T14:35:05;7.00;75.60
1155;DHT22;566;48.414;9.118;2023-04-03T14:37:32;7.40;74.60
1155;DHT22;566;48.414;9.118;2023-04-03T14:39:59;8.80;73.60
1155;DHT22;566;48.414;9.118;2023-04-03T14:42:31;10.00;69.90
1155;DHT22;566;48.414;9.118;2023-04-03T14:44:58;10.10;69.60
1155;DHT22;566;48.414;9.118;2023-04-03T14:47:27;9.90;69.80
1155;DHT22;566;48.414;9.118;2023-04-03T14:49:53;9.20;69.70
1155;DHT22;566;48.414;9.118;2023-04-03T14:52:27;8.30;71.20
1155;DHT22;566;48.414;9.118;2023-04-03T14:54:54;8.00;71.20
1155;DHT22;566;48.414;9.118;2023-04-03T14:57:23;7.70;72.40
1155;DHT22;566;48.414;9.118;2023-04-03T14:59:49;7.90;72.70
1155;DHT22;566;48.414;9.118;2023-04-03T15:04:49;7.70;72.70
1155;DHT22;566;48.414;9.118;2023-04-03T15:07:14;7.50;72.20
1155;DHT22;566;48.414;9.118;2023-04-03T15:09:40;7.30;72.80
1155;DHT22;566;48.414;9.118;2023-04-03T15:12:08;6.90;74.10
1155;DHT22;566;48.414;9.118;2023-04-03T15:14:33;6.40;74.90
1155;DHT22;566;48.414;9.118;2023-04-03T15:16:59;6.40;77.10
1155;DHT22;566;48.414;9.118;2023-04-03T15:19:25;6.40;75.60
1155;DHT22;566;48.414;9.118;2023-04-03T15:21:50;6.50;75.10
1155;DHT22;566;48.414;9.118;2023-04-03T15:24:16;6.30;75.50
1155;DHT22;566;48.414;9.118;2023-04-03T15:26:42;6.10;76.80
1155;DHT22;566;48.414;9.118;2023-04-03T15:29:08;6.00;78.10
1155;DHT22;566;48.414;9.118;2023-04-03T15:31:33;5.90;76.70
1155;DHT22;566;48.414;9.118;2023-04-03T15:33:59;5.80;77.40
1155;DHT22;566;48.414;9.118;2023-04-03T15:36:25;5.70;76.80
1155;DHT22;566;48.414;9.118;2023-04-03T15:38:50;5.70;77.90
1155;DHT22;566;48.414;9.118;2023-04-03T15:41:16;5.70;76.50
1155;DHT22;566;48.414;9.118;2023-04-03T15:43:41;5.80;77.80
1155;DHT22;566;48.414;9.118;2023-04-03T15:46:07;5.90;77.80
1155;DHT22;566;48.414;9.118;2023-04-03T15:48:33;6.00;76.50
1155;DHT22;566;48.414;9.118;2023-04-03T15:50:59;6.00;76.20
1155;DHT22;566;48.414;9.118;2023-04-03T15:53:25;5.80;76.40
1155;DHT22;566;48.414;9.118;2023-04-03T15:55:51;5.50;76.30
1155;DHT22;566;48.414;9.118;2023-04-03T15:58:17;5.50;76.30
1155;DHT22;566;48.414;9.118;2023-04-03T16:00:42;7.40;74.80
1155;DHT22;566;48.414;9.118;2023-04-03T16:03:15;10.20;69.40
1155;DHT22;566;48.414;9.118;2023-04-03T16:05:41;11.90;63.90
1155;DHT22;566;48.414;9.118;2023-04-03T16:08:07;12.70;63.20
1155;DHT22;566;48.414;9.118;2023-04-03T16:10:34;12.80;60.50
1155;DHT22;566;48.414;9.118;2023-04-03T16:13:00;11.30;61.50
1155;DHT22;566;48.414;9.118;2023-04-03T16:15:26;9.40;64.20
1155;DHT22;566;48.414;9.118;2023-04-03T16:17:53;8.00;67.50
1155;DHT22;566;48.414;9.118;2023-04-03T16:20:19;7.40;70.50
1155;DHT22;566;48.414;9.118;2023-04-03T16:22:45;6.50;72.10
1155;DHT22;566;48.414;9.118;2023-04-03T16:25:11;6.10;72.90
1155;DHT22;566;48.414;9.118;2023-04-03T16:27:37;5.80;74.80
1155;DHT22;566;48.414;9.118;2023-04-03T16:30:04;5.60;76.40
1155;DHT22;566;48.414;9.118;2023-04-03T16:32:30;5.50;76.50
1155;DHT22;566;48.414;9.118;2023-04-03T16:34:57;5.30;76.40
1155;DHT22;566;48.414;9.118;2023-04-03T16:37:23;5.00;76.40
1155;DHT22;566;48.414;9.118;2023-04-03T16:39:48;4.70;76.80
1155;DHT22;566;48.414;9.118;2023-04-03T16:42:14;4.60;76.50
1155;DHT22;566;48.414;9.118;2023-04-03T16:44:43;4.80;76.80
1155;DHT22;566;48.414;9.118;2023-04-03T16:47:09;5.00;77.50
1155;DHT22;566;48.414;9.118;2023-04-03T16:49:35;5.80;77.60
1155;DHT22;566;48.414;9.118;2023-04-03T16:52:02;7.80;72.10
1155;DHT22;566;48.414;9.118;2023-04-03T16:54:27;9.00;67.80
1155;DHT22;566;48.414;9.118;2023-04-03T16:56:53;9.40;65.90
1155;DHT22;566;48.414;9.118;2023-04-03T16:59:19;9.40;65.80
1155;DHT22;566;48.414;9.118;2023-04-03T17:01:44;9.60;65.50
1155;DHT22;566;48.414;9.118;2023-04-03T17:04:10;9.00;65.20
1155;DHT22;566;48.414;9.118;2023-04-03T17:06:37;8.10;66.80
1155;DHT22;566;48.414;9.118;2023-04-03T17:09:02;7.10;68.30
1155;DHT22;566;48.414;9.118;2023-04-03T17:11:29;6.20;70.90
1155;DHT22;566;48.414;9.118;2023-04-03T17:13:55;5.70;73.30
1155;DHT22;566;48.414;9.118;2023-04-03T17:16:21;5.30;73.30
1155;DHT22;566;48.414;9.118;2023-04-03T17:18:47;5.00;73.60
1155;DHT22;566;48.414;9.118;2023-04-03T17:21:13;4.80;75.30
1155;DHT22;566;48.414;9.118;2023-04-03T17:23:41;4.60;75.30
1155;DHT22;566;48.414;9.118;2023-04-03T17:26:10;4.50;76.80
1155;DHT22;566;48.414;9.118;2023-04-03T17:28:36;4.10;77.40
1155;DHT22;566;48.414;9.118;2023-04-03T17:31:03;3.90;78.40
1155;DHT22;566;48.414;9.118;2023-04-03T17:33:29;3.70;77.60
1155;DHT22;566;48.414;9.118;2023-04-03T17:35:56;3.50;78.20
1155;DHT22;566;48.414;9.118;2023-04-03T17:38:22;3.40;79.80
1155;DHT22;566;48.414;9.118;2023-04-03T17:40:47;3.30;79.20
1155;DHT22;566;48.414;9.118;2023-04-03T17:43:13;3.20;79.70
1155;DHT22;566;48.414;9.118;2023-04-03T17:45:39;3.20;80.00
1155;DHT22;566;48.414;9.118;2023-04-03T17:48:04;3.10;80.00
1155;DHT22;566;48.414;9.118;2023-04-03T17:50:30;2.90;80.20
1155;DHT22;566;48.414;9.118;2023-04-03T17:52:56;2.90;79.90
1155;DHT22;566;48.414;9.118;2023-04-03T17:55:24;2.80;80.50
1155;DHT22;566;48.414;9.118;2023-04-03T17:57:50;2.70;81.20
1155;DHT22;566;48.414;9.118;2023-04-03T18:00:16;2.70;81.60
1155;DHT22;566;48.414;9.118;2023-04-03T18:02:42;2.70;82.10
1155;DHT22;566;48.414;9.118;2023-04-03T18:05:08;2.70;81.60
1155;DHT22;566;48.414;9.118;2023-04-03T18:07:36;2.80;82.50
1155;DHT22;566;48.414;9.118;2023-04-03T18:10:02;2.80;82.20
1155;DHT22;566;48.414;9.118;2023-04-03T18:12:30;2.90;82.40
1155;DHT22;566;48.414;9.118;2023-04-03T18:14:57;2.80;82.00
1155;DHT22;566;48.414;9.118;2023-04-03T18:17:23;2.70;82.10
1155;DHT22;566;48.414;9.118;2023-04-03T18:19:48;2.60;83.50
1155;DHT22;566;48.414;9.118;2023-04-03T18:22:16;2.40;83.00
1155;DHT22;566;48.414;9.118;2023-04-03T18:24:46;2.30;84.30